Time;durP1;ratioP1;P1;durP2;ratioP2;P2;SDS_P1;SDS_P2;PMS_P1;PMS_P2;Temp;Humidity;BMP_temperature;BMP_pressure;BME280_temperature;BME280_humidity;BME280_pressure;Samples;Min_cycle;Max_cycle;Signal;HPM_P1;HPM_P2
2022/12/13 00:09:19;;;;;;;12.70;5.80;;;;;;;0.85;78.38;99261.00;660513;1313;138128;-86
2022/12/13 00:24:22;;;;;;;11.50;6.00;;;;;;;0.86;78.73;99262.83;660495;1311;138486;-85
2022/12/13 00:39:27;;;;;;;8.70;4.20;;;;;;;0.77;78.80;99278.36;660725;1313;163674;-85
2022/12/13 00:54:30;;;;;;;15.20;5.80;;;;;;;0.63;79.95;99305.90;660380;1312;138388;-85
2022/12/13 01:09:34;;;;;;;8.10;4.00;;;;;;;0.50;80.69;99306.91;660639;1312;138361;-86
2022/12/13 01:24:37;;;;;;;10.50;5.50;;;;;;;0.43;82.37;99311.12;660483;1306;138038;-86
2022/12/13 01:39:41;;;;;;;9.80;4.80;;;;;;;0.27;82.95;99314.14;660712;1313;138173;-86
2022/12/13 01:54:49;;;;;;;10.10;4.70;;;;;;;0.18;83.10;99321.05;660496;1312;138189;-85
2022/12/13 02:09:57;;;;;;;10.10;4.40;;;;;;;-0.13;83.00;99319.42;660414;1304;138380;-85
2022/12/13 02:25:15;;;;;;;9.60;4.70;;;;;;;-0.31;83.34;99325.30;660387;1294;138492;-87
2022/12/13 02:40:25;;;;;;;10.20;4.40;;;;;;;-0.45;83.33;99307.91;660622;1312;138385;-86
2022/12/13 02:55:28;;;;;;;8.40;3.90;;;;;;;-0.44;82.85;99317.64;660374;1311;138749;-86
2022/12/13 03:10:41;;;;;;;15.20;7.20;;;;;;;-0.48;82.36;99326.10;660597;1308;138536;-86
2022/12/13 03:25:50;;;;;;;8.40;3.80;;;;;;;-0.55;83.39;99327.34;660577;1311;138593;-85
2022/12/13 03:40:59;;;;;;;8.60;4.70;;;;;;;-0.56;84.83;99344.05;660312;1308;138814;-85
2022/12/13 03:56:05;;;;;;;9.00;4.00;;;;;;;-0.58;84.51;99347.26;660359;1313;138315;-85
2022/12/13 04:26:31;;;;;;;11.10;5.60;;;;;;;-0.55;83.72;99359.13;660675;1313;138372;-86
2022/12/13 04:41:36;;;;;;;8.20;4.60;;;;;;;-0.44;83.10;99356.11;660338;1312;138551;-85
2022/12/13 04:56:39;;;;;;;8.20;4.10;;;;;;;-0.42;81.55;99360.49;660575;1313;138340;-85
2022/12/13 05:11:43;;;;;;;12.10;5.20;;;;;;;-0.34;80.19;99361.91;660458;1313;138485;-85
2022/12/13 05:26:50;;;;;;;12.60;5.70;;;;;;;-0.33;80.86;99364.23;660688;1312;138504;-85
2022/12/13 05:41:55;;;;;;;23.40;10.10;;;;;;;-0.20;82.14;99366.10;660567;1313;138864;-85
2022/12/13 05:57:05;;;;;;;21.40;12.40;;;;;;;-0.27;83.22;99370.77;660510;1313;138715;-85
2022/12/13 06:12:08;;;;;;;19.10;8.30;;;;;;;-0.33;83.49;99395.87;660547;1312;138969;-85
2022/12/13 06:27:32;;;;;;;17.70;9.00;;;;;;;-0.40;83.69;99407.97;660527;1297;138600;-85
2022/12/13 06:42:37;;;;;;;16.70;8.60;;;;;;;-0.54;85.05;99422.14;660447;1313;138665;-85
2022/12/13 06:57:42;;;;;;;20.40;8.60;;;;;;;-0.53;85.94;99435.13;660564;1310;138632;-86
2022/12/13 07:12:46;;;;;;;16.60;9.30;;;;;;;-0.48;86.04;99448.23;660601;1311;138748;-85
2022/12/13 07:27:58;;;;;;;27.90;13.10;;;;;;;-0.50;86.33;99466.74;660520;1312;138845;-84
2022/12/13 07:43:05;;;;;;;27.50;12.80;;;;;;;-0.50;86.59;99470.51;660438;1312;138699;-84
2022/12/13 07:58:11;;;;;;;23.00;10.70;;;;;;;-0.44;87.00;99476.20;660600;1308;138593;-84
2022/12/13 08:13:14;;;;;;;28.00;12.10;;;;;;;-0.36;86.53;99491.05;660594;1310;22719;-85
2022/12/13 08:28:18;;;;;;;34.00;16.70;;;;;;;-0.26;86.04;99498.91;660750;1312;22227;-84
2022/12/13 08:43:21;;;;;;;28.70;14.50;;;;;;;-0.11;85.42;99510.11;660142;1312;140976;-85
2022/12/13 08:58:27;;;;;;;38.00;15.50;;;;;;;-0.12;85.02;99516.72;660697;1311;138736;-85
2022/12/13 09:13:33;;;;;;;36.30;15.40;;;;;;;-0.08;84.68;99529.58;660485;1305;138580;-85
2022/12/13 09:28:45;;;;;;;40.10;15.90;;;;;;;0.37;83.85;99542.32;660026;1313;138844;-86
2022/12/13 09:43:56;;;;;;;36.10;19.40;;;;;;;0.74;81.27;99549.86;660517;1305;138481;-85
2022/12/13 09:59:03;;;;;;;32.50;17.70;;;;;;;0.60;80.88;99566.98;660600;1299;138540;-85
2022/12/13 10:14:17;;;;;;;111.20;41.80;;;;;;;0.36;81.94;99571.94;660566;1312;138896;-85
2022/12/13 10:29:21;;;;;;;50.70;22.40;;;;;;;0.18;83.03;99576.61;660469;1309;138721;-85
2022/12/13 10:44:24;;;;;;;62.20;22.90;;;;;;;0.49;82.22;99580.58;660241;1312;139408;-85
2022/12/13 10:59:37;;;;;;;116.70;42.00;;;;;;;0.69;82.11;99596.58;660389;1305;138785;-85
2022/12/13 11:15:00;;;;;;;29.90;15.00;;;;;;;0.95;81.56;99598.53;660466;1313;138668;-85
2022/12/13 11:30:20;;;;;;;36.00;15.90;;;;;;;1.28;80.42;99592.60;660405;1311;138388;-84
2022/12/13 11:45:27;;;;;;;57.90;25.50;;;;;;;1.45;78.55;99592.61;660615;1312;138647;-85
2022/12/13 12:00:38;;;;;;;109.60;37.00;;;;;;;1.26;78.66;99606.15;660337;1303;138401;-85
2022/12/13 12:15:48;;;;;;;73.30;30.70;;;;;;;1.09;78.64;99623.70;660531;1311;138822;-84
2022/12/13 12:31:09;;;;;;;44.40;19.10;;;;;;;1.07;77.72;99632.92;660009;1305;138451;-85
2022/12/13 12:46:32;;;;;;;;;;;;;;;1.05;77.28;99637.73;660494;1312;139070;-84
2022/12/13 13:02:34;;;;;;;73.30;29.10;;;;;;;1.01;77.31;99651.36;660158;1312;124566;-85
2022/12/13 13:17:38;;;;;;;107.00;34.00;;;;;;;0.96;77.40;99663.23;658565;1314;138384;-84
2022/12/13 13:32:42;;;;;;;58.90;22.40;;;;;;;0.96;77.16;99674.45;659149;1302;138860;-84
2022/12/13 13:47:51;;;;;;;189.40;62.40;;;;;;;0.79;76.62;99684.84;659457;1313;138676;-85
2022/12/13 14:02:55;;;;;;;99.40;38.20;;;;;;;0.54;76.65;99701.23;659565;1303;140381;-84
2022/12/13 14:18:18;;;;;;;139.20;53.90;;;;;;;0.48;77.61;99728.73;659301;1313;138426;-84
2022/12/13 14:33:24;;;;;;;60.40;21.90;;;;;;;0.46;77.66;99741.20;661706;1306;139190;-85
2022/12/13 14:48:34;;;;;;;37.10;15.80;;;;;;;0.47;77.46;99745.15;659328;1313;138723;-84
2022/12/13 15:03:38;;;;;;;101.80;38.00;;;;;;;0.38;77.34;99744.43;659575;1313;138618;-84
2022/12/13 15:18:43;;;;;;;35.80;17.60;;;;;;;0.36;77.68;99750.58;659144;1312;139325;-83
2022/12/13 15:34:27;;;;;;;29.10;13.10;;;;;;;0.36;77.74;99763.98;660168;1313;138413;-84
2022/12/13 15:49:51;;;;;;;54.00;18.90;;;;;;;0.38;77.56;99767.14;659583;1313;138388;-83
2022/12/13 16:05:05;;;;;;;54.90;22.90;;;;;;;0.38;77.40;99774.71;659257;1313;138541;-83
2022/12/13 16:20:16;;;;;;;52.30;24.20;;;;;;;0.42;77.30;99778.98;659377;1313;138671;-84
2022/12/13 16:35:20;;;;;;;27.80;12.40;;;;;;;0.19;78.00;99795.28;659023;1308;138677;-85
2022/12/13 16:50:25;;;;;;;43.00;19.90;;;;;;;0.18;78.49;99808.77;659530;1313;138548;-84
2022/12/13 17:05:28;;;;;;;27.10;11.10;;;;;;;0.21;78.49;99817.89;658911;1313;138625;-83
2022/12/13 17:20:32;;;;;;;36.00;15.50;;;;;;;0.16;79.14;99820.95;659284;1307;138514;-85
2022/12/13 17:35:38;;;;;;;38.80;15.50;;;;;;;0.13;79.37;99830.55;658823;1312;138351;-84
2022/12/13 17:50:42;;;;;;;48.10;19.50;;;;;;;0.08;79.51;99835.46;658748;1314;138496;-84
2022/12/13 18:05:55;;;;;;;67.10;25.00;;;;;;;0.03;79.43;99847.04;658618;1313;138506;-84
2022/12/13 18:21:05;;;;;;;47.10;18.90;;;;;;;0.02;79.23;99861.02;658539;1313;138668;-84
2022/12/13 18:36:08;;;;;;;47.90;18.20;;;;;;;-0.06;79.18;99872.78;658634;1302;138632;-84
2022/12/13 18:51:12;;;;;;;131.30;45.20;;;;;;;0.07;79.06;99892.08;658956;1313;139030;-84
2022/12/13 19:06:21;;;;;;;79.10;31.50;;;;;;;0.08;78.57;99901.65;658800;1313;139213;-84
2022/12/13 19:21:24;;;;;;;43.70;18.70;;;;;;;0.12;78.80;99912.60;658811;1314;139537;-84
2022/12/13 19:36:29;;;;;;;42.40;16.90;;;;;;;0.11;78.40;99915.24;659104;1314;138598;-84
2022/12/13 19:51:32;;;;;;;48.20;17.90;;;;;;;0.17;78.26;99913.23;658804;1314;138646;-84
2022/12/13 20:06:41;;;;;;;40.30;14.40;;;;;;;0.17;77.86;99922.36;658453;1313;138543;-84
2022/12/13 20:21:45;;;;;;;157.50;62.00;;;;;;;0.14;77.64;99929.57;658668;1314;138829;-84
2022/12/13 20:36:49;;;;;;;39.40;17.20;;;;;;;0.14;77.82;99940.05;658901;1307;140205;-84
2022/12/13 20:51:52;;;;;;;91.10;34.50;;;;;;;0.07;77.54;99934.35;659588;1314;138496;-83
2022/12/13 21:06:55;;;;;;;35.80;14.20;;;;;;;0.08;77.43;99933.27;658949;1313;138785;-83
2022/12/13 21:21:59;;;;;;;78.60;39.80;;;;;;;0.02;77.63;99943.23;659020;1314;138636;-83
2022/12/13 21:37:03;;;;;;;42.90;18.80;;;;;;;-0.11;77.95;99959.84;658669;1304;138569;-84
2022/12/13 21:52:07;;;;;;;34.20;17.00;;;;;;;-0.27;78.18;99962.52;659122;1314;138719;-82
2022/12/13 22:07:15;;;;;;;35.50;14.90;;;;;;;-0.58;78.44;99961.71;659017;1313;138779;-84
2022/12/13 22:22:20;;;;;;;60.10;22.00;;;;;;;-0.90;78.34;99964.89;659139;1313;139389;-84
2022/12/13 22:37:24;;;;;;;96.40;29.90;;;;;;;-1.22;79.07;99968.23;659920;1313;138688;-84
2022/12/13 22:52:27;;;;;;;57.40;24.20;;;;;;;-1.45;79.27;99966.48;659232;1313;138771;-83
2022/12/13 23:07:36;;;;;;;114.30;47.80;;;;;;;-1.51;79.17;99961.77;658981;1312;139314;-83
2022/12/13 23:22:40;;;;;;;36.10;15.30;;;;;;;-1.71;79.51;99960.01;658580;1313;138980;-83
2022/12/13 23:37:43;;;;;;;29.70;13.60;;;;;;;-1.86;80.45;99949.33;658362;1309;138817;-84
2022/12/13 23:52:50;;;;;;;63.00;28.80;;;;;;;-1.92;80.57;99950.63;658211;1315;138678;-83
